Pagrindinis puslapis
METAR-TAF:

METAR-TAF

Oro uostai :

Kampo Grandė, Pietų Mato Grosas, Brazilija

platuma: 20-28S, ilguma: 054-40W, Aukštis: 567 m

Dabartinis oras

Ataskaita buvo paskelbta 21 minutes, ne 09:00 UTC
Vėjas 5 kt iš Rytų/Šiaurės Rytų
Temperatūra 21°C
Drėgmė 83%
Slėgis 1009 hPa
Matomumas 10 km arba daugiau
nėra debesų žemiau 1500 m ir nėra kamuolinių lietaus debesų

METAR: SBCG 180900Z 06005KT CAVOK 21/18 Q1009

Laikas: 05:21 (09:21 UTC)

Prognozė

Ataskaita buvo paskelbta 5 valandos ir 21 minutes, ne 04:00 UTC
Prognozė galioja nuo 18 metu 06 UTC su 19 metu 06 UTC
Vėjas 7 kt iš Šiaurės/Šiaurės Rytų
Matomumas 10 km arba daugiau
nėra debesų žemiau 1500 m ir nėra kamuolinių lietaus debesų
Tapsmas
nuo 18 metu 10 UTC su 18 metu 12 UTC
Vėjas 8 kt iš Šiaurės/Šiaurės Vakarų
Tapsmas
nuo 18 metu 21 UTC su 18 metu 23 UTC
Vėjas 2 kt iš Šiaurės

TAF: SBCG 180400Z 1806/1906 02007KT CAVOK TN23/1807Z TX30/1818Z BECMG 1810/1812 34008KT BECMG 1821/1823 36002KT RMK PDU

Orai ataskaitas ir orų prognozės (METAR, TAF).

turimą stotys yra geltonos ir raudonos taškus žemėlapyje.

Perkelti pele per norėdami pamatyti stoties vardą.

Tada spustelėkite, norėdami matyti oro stebėjimo ir prognozės.

Norėdami pakeisti žemėlapį: spustelėkite ant žalios mygtukų su juodo kryžiaus žemyn,; žalią mygtuką su brūkšneliu, jei norite nutolinti; arba žalių rodyklių gretimoms žemėlapius.


METAR-TAF: